createdAt,value
2019-04-27T00:00:43.871Z,26.00
2019-04-27T00:03:18.307Z,25.37
2019-04-27T00:05:51.442Z,29.98
2019-04-27T00:08:28.511Z,28.10
2019-04-27T00:11:06.927Z,25.85
2019-04-27T00:13:40.464Z,24.35
2019-04-27T00:16:10.006Z,24.75
2019-04-27T00:18:43.352Z,26.90
2019-04-27T00:21:17.868Z,24.25
2019-04-27T00:23:50.293Z,24.77
2019-04-27T00:26:23.322Z,25.35
2019-04-27T00:28:55.766Z,26.02
2019-04-27T00:31:27.978Z,26.35
2019-04-27T00:33:59.780Z,33.10
2019-04-27T00:36:35.246Z,36.20
2019-04-27T00:39:10.030Z,22.58
2019-04-27T00:41:43.004Z,30.65
2019-04-27T00:44:15.772Z,25.12
2019-04-27T00:46:48.212Z,36.45
2019-04-27T00:49:20.485Z,30.62
2019-04-27T00:51:53.600Z,31.55
2019-04-27T00:54:26.874Z,26.57
2019-04-27T00:57:00.231Z,24.23
2019-04-27T00:59:34.701Z,31.42
2019-04-27T01:02:08.141Z,22.05
2019-04-27T01:04:40.488Z,20.00
2019-04-27T01:07:14.308Z,25.43
2019-04-27T01:09:47.371Z,29.20
2019-04-27T01:12:19.968Z,28.62
2019-04-27T01:14:53.482Z,21.20
2019-04-27T01:17:25.485Z,25.20
2019-04-27T01:20:00.335Z,29.12
2019-04-27T01:22:32.519Z,27.55
2019-04-27T01:25:05.505Z,23.90
2019-04-27T01:27:39.389Z,24.67
2019-04-27T01:30:13.081Z,20.43
2019-04-27T01:32:46.514Z,24.85
2019-04-27T01:35:18.739Z,23.65
2019-04-27T01:37:51.074Z,25.70
2019-04-27T01:40:23.601Z,25.97
2019-04-27T01:42:55.399Z,27.02
2019-04-27T01:45:28.985Z,26.97
2019-04-27T01:48:02.270Z,28.10
2019-04-27T01:50:34.372Z,25.05
2019-04-27T01:53:06.589Z,26.80
2019-04-27T01:55:49.139Z,36.08
2019-04-27T01:58:21.485Z,48.95
2019-04-27T02:01:15.914Z,24.55
2019-04-27T02:03:50.539Z,24.05
2019-04-27T02:06:23.403Z,28.07
2019-04-27T02:08:55.406Z,24.63
2019-04-27T02:11:28.840Z,32.78
2019-04-27T02:14:01.116Z,22.75
2019-04-27T02:16:33.414Z,25.30
2019-04-27T02:19:05.720Z,23.05
2019-04-27T02:21:39.259Z,22.65
2019-04-27T02:24:11.429Z,19.45
2019-04-27T02:26:45.848Z,24.55
2019-04-27T02:29:19.476Z,26.68
2019-04-27T02:31:53.096Z,30.25
2019-04-27T02:34:26.142Z,26.30
2019-04-27T02:37:02.548Z,20.80
2019-04-27T02:39:33.312Z,21.73
2019-04-27T02:42:10.828Z,22.45
2019-04-27T02:44:43.253Z,21.70
2019-04-27T02:47:16.803Z,22.95
2019-04-27T02:49:50.728Z,25.75
2019-04-27T02:52:26.750Z,20.72
2019-04-27T02:54:59.425Z,23.30
2019-04-27T02:57:31.310Z,17.85
2019-04-27T03:00:03.635Z,17.85
2019-04-27T03:02:40.235Z,22.50
2019-04-27T03:05:13.371Z,19.48
2019-04-27T03:08:06.082Z,29.30
2019-04-27T03:10:40.153Z,29.02
2019-04-27T03:13:14.022Z,29.10
2019-04-27T03:15:49.660Z,25.90
2019-04-27T03:18:22.964Z,23.77
2019-04-27T03:20:56.762Z,21.60
2019-04-27T03:23:31.023Z,23.90
2019-04-27T03:26:23.010Z,19.62
2019-04-27T03:28:55.693Z,24.60
2019-04-27T03:31:32.343Z,28.57
2019-04-27T03:34:05.104Z,20.37
2019-04-27T03:36:35.735Z,28.57
2019-04-27T03:39:10.358Z,23.52
2019-04-27T03:41:43.449Z,29.40
2019-04-27T03:44:20.497Z,24.92
2019-04-27T03:46:52.786Z,27.30
2019-04-27T03:49:34.559Z,19.95
2019-04-27T03:52:19.923Z,21.60
2019-04-27T03:54:53.464Z,31.75
2019-04-27T03:57:29.765Z,23.83
2019-04-27T04:00:03.822Z,18.10
2019-04-27T04:02:40.071Z,22.70
2019-04-27T04:05:12.300Z,22.50
2019-04-27T04:07:44.674Z,20.45
2019-04-27T04:10:19.890Z,26.05
2019-04-27T04:12:56.733Z,22.98
2019-04-27T04:15:31.075Z,24.52
2019-04-27T04:18:03.482Z,20.15
2019-04-27T04:20:35.718Z,20.48
2019-04-27T04:23:07.518Z,21.07
2019-04-27T04:25:40.968Z,26.12
2019-04-27T04:28:12.968Z,19.80
2019-04-27T04:30:45.644Z,24.18
2019-04-27T04:33:20.192Z,24.20
2019-04-27T04:35:52.517Z,37.58
2019-04-27T04:38:25.216Z,27.17
2019-04-27T04:40:59.400Z,24.47
2019-04-27T04:43:32.959Z,44.03
2019-04-27T04:46:11.551Z,25.40
2019-04-27T04:48:41.358Z,21.37
2019-04-27T04:51:13.824Z,29.72
2019-04-27T04:53:48.815Z,26.40
2019-04-27T04:56:20.482Z,26.27
2019-04-27T04:58:52.531Z,27.48
2019-04-27T05:01:24.771Z,25.05
2019-04-27T05:03:59.008Z,24.40
2019-04-27T05:06:31.750Z,24.32
2019-04-27T05:09:04.439Z,19.25
2019-04-27T05:11:36.923Z,24.60
2019-04-27T05:14:09.902Z,22.10
2019-04-27T05:16:43.774Z,28.65
2019-04-27T05:19:15.731Z,21.80
2019-04-27T05:21:49.275Z,21.48
2019-04-27T05:24:21.481Z,19.40
2019-04-27T05:26:53.570Z,17.15
2019-04-27T05:29:25.257Z,13.28
2019-04-27T05:32:00.759Z,17.40
2019-04-27T05:34:32.639Z,16.32
2019-04-27T05:37:06.185Z,18.02
2019-04-27T05:39:39.051Z,15.83
2019-04-27T05:42:16.936Z,17.77
2019-04-27T05:45:06.283Z,16.48
2019-04-27T05:47:43.357Z,18.90
2019-04-27T05:50:18.348Z,20.55
2019-04-27T05:52:49.687Z,17.07
2019-04-27T05:55:22.073Z,24.25
2019-04-27T05:57:53.873Z,16.65
2019-04-27T06:00:29.358Z,21.10
2019-04-27T06:03:01.876Z,19.25
2019-04-27T06:05:33.918Z,21.73
2019-04-27T06:08:08.621Z,17.20
2019-04-27T06:10:40.966Z,19.62
2019-04-27T06:13:12.860Z,15.55
2019-04-27T06:15:44.901Z,17.62
2019-04-27T06:18:20.672Z,17.17
2019-04-27T06:20:55.679Z,15.08
2019-04-27T06:23:26.703Z,15.10
2019-04-27T06:26:01.577Z,15.23
2019-04-27T06:28:34.018Z,20.85
2019-04-27T06:31:06.191Z,17.57
2019-04-27T06:33:39.241Z,20.10
2019-04-27T06:36:11.661Z,14.15
2019-04-27T06:38:44.342Z,16.00
2019-04-27T06:41:16.494Z,15.68
2019-04-27T06:43:49.744Z,19.02
2019-04-27T06:46:40.967Z,13.80
2019-04-27T06:49:13.075Z,13.22
2019-04-27T06:51:45.048Z,13.60
2019-04-27T06:54:21.045Z,14.30
2019-04-27T06:56:51.636Z,17.30
2019-04-27T06:59:24.105Z,15.80
2019-04-27T07:01:56.207Z,13.50
2019-04-27T07:04:29.423Z,14.25
2019-04-27T07:07:02.966Z,15.60
2019-04-27T07:09:42.130Z,16.32
2019-04-27T07:12:20.035Z,12.98
2019-04-27T07:20:12.703Z,18.75
2019-04-27T07:22:45.067Z,13.78
2019-04-27T07:25:18.895Z,13.30
2019-04-27T07:27:51.868Z,14.50
2019-04-27T07:30:24.087Z,12.47
2019-04-27T07:32:56.196Z,14.63
2019-04-27T07:35:29.608Z,16.75
2019-04-27T07:38:05.149Z,11.12
2019-04-27T07:40:41.618Z,15.05
2019-04-27T07:43:13.801Z,15.23
2019-04-27T07:45:46.285Z,18.02
2019-04-27T07:48:18.906Z,17.37
2019-04-27T07:50:51.525Z,16.57
2019-04-27T07:53:23.699Z,15.78
2019-04-27T07:55:56.655Z,13.40
2019-04-27T07:58:29.589Z,18.55
2019-04-27T08:01:01.964Z,13.75
2019-04-27T08:03:34.335Z,14.63
2019-04-27T08:06:06.418Z,17.52
2019-04-27T08:08:59.345Z,15.05
2019-04-27T08:11:31.608Z,14.55
2019-04-27T08:14:03.912Z,14.85
2019-04-27T08:16:35.977Z,15.40
2019-04-27T08:19:09.839Z,12.85
2019-04-27T08:21:44.401Z,16.95
2019-04-27T08:24:16.305Z,13.20
2019-04-27T08:26:50.151Z,13.68
2019-04-27T08:29:23.482Z,17.32
2019-04-27T08:31:58.522Z,17.82
2019-04-27T08:34:32.001Z,12.00
2019-04-27T08:37:06.208Z,17.17
2019-04-27T08:39:39.657Z,12.25
2019-04-27T08:42:14.140Z,11.63
2019-04-27T08:44:46.448Z,16.17
2019-04-27T08:47:19.521Z,13.15
2019-04-27T08:49:51.625Z,16.32
2019-04-27T08:52:24.665Z,15.53
2019-04-27T08:54:56.883Z,17.05
2019-04-27T08:57:29.129Z,15.65
2019-04-27T09:00:09.278Z,16.30
2019-04-27T09:02:46.801Z,18.10
2019-04-27T09:05:15.357Z,16.85
2019-04-27T09:07:49.677Z,12.73
2019-04-27T09:10:24.424Z,18.25
2019-04-27T09:12:58.959Z,16.60
2019-04-27T09:15:32.886Z,15.63
2019-04-27T09:18:05.211Z,17.75
2019-04-27T09:20:41.168Z,16.62
2019-04-27T09:23:14.198Z,18.75
2019-04-27T09:25:46.450Z,17.95
2019-04-27T09:28:20.281Z,13.90
2019-04-27T09:30:54.120Z,17.90
2019-04-27T09:33:26.463Z,16.45
2019-04-27T09:36:01.491Z,14.80
2019-04-27T09:38:35.773Z,18.70
2019-04-27T09:41:07.667Z,17.05
2019-04-27T09:43:39.601Z,18.27
2019-04-27T09:46:12.459Z,21.77
2019-04-27T09:48:46.624Z,16.00
2019-04-27T09:51:19.390Z,18.12
2019-04-27T09:54:12.093Z,15.58
2019-04-27T09:56:46.722Z,12.43
2019-04-27T09:59:19.232Z,12.95
2019-04-27T10:01:51.175Z,15.72
2019-04-27T10:04:26.301Z,19.17
2019-04-27T10:06:58.681Z,22.32
2019-04-27T10:09:34.602Z,14.03
2019-04-27T10:12:08.460Z,15.98
2019-04-27T10:14:47.684Z,22.15
2019-04-27T10:17:20.184Z,19.92
2019-04-27T10:19:52.099Z,25.90
2019-04-27T10:22:43.813Z,26.45
2019-04-27T10:25:17.994Z,13.78
2019-04-27T10:27:52.072Z,16.12
2019-04-27T10:30:25.781Z,22.65
2019-04-27T10:32:58.295Z,17.02
2019-04-27T10:35:30.263Z,13.08
2019-04-27T10:38:02.651Z,12.20
2019-04-27T10:40:35.384Z,15.35
2019-04-27T10:43:07.723Z,17.45
2019-04-27T10:45:40.609Z,13.85
2019-04-27T10:48:12.929Z,13.65
2019-04-27T10:50:46.698Z,15.18
2019-04-27T10:53:19.151Z,17.82
2019-04-27T10:55:51.298Z,15.05
2019-04-27T10:58:23.515Z,21.42
2019-04-27T11:00:58.467Z,19.62
2019-04-27T11:03:32.412Z,18.92
2019-04-27T11:06:06.762Z,17.87
2019-04-27T11:08:38.969Z,17.77
2019-04-27T11:11:10.907Z,19.98
2019-04-27T11:13:43.171Z,21.62
2019-04-27T11:16:15.338Z,19.27
2019-04-27T11:18:47.473Z,16.07
2019-04-27T11:21:20.253Z,17.82
2019-04-27T11:23:52.637Z,18.17
2019-04-27T11:26:38.128Z,19.00
2019-04-27T11:29:10.464Z,19.20
2019-04-27T11:31:42.546Z,23.47
2019-04-27T11:34:15.342Z,23.00
2019-04-27T11:36:48.738Z,19.25
2019-04-27T11:39:21.726Z,18.00
2019-04-27T11:41:53.685Z,21.37
2019-04-27T11:44:26.496Z,30.97
2019-04-27T11:46:59.224Z,18.95
2019-04-27T11:49:31.561Z,21.52
2019-04-27T11:52:03.473Z,18.62
2019-04-27T11:54:36.238Z,18.87
2019-04-27T11:57:08.654Z,18.40
2019-04-27T11:59:40.310Z,23.45
2019-04-27T12:02:12.890Z,21.90
2019-04-27T12:04:46.666Z,19.05
2019-04-27T12:07:18.943Z,18.87
2019-04-27T12:09:51.750Z,22.52
2019-04-27T12:12:26.211Z,20.85
2019-04-27T12:14:58.401Z,16.87
2019-04-27T12:17:30.943Z,16.80
2019-04-27T12:20:02.874Z,19.05
2019-04-27T12:22:34.778Z,17.10
2019-04-27T12:25:08.593Z,16.15
2019-04-27T12:27:45.819Z,20.17
2019-04-27T12:30:19.943Z,16.12
2019-04-27T12:32:52.001Z,15.70
2019-04-27T12:35:43.178Z,11.28
2019-04-27T12:38:15.202Z,13.32
2019-04-27T12:40:47.588Z,15.18
2019-04-27T12:43:20.703Z,14.50
2019-04-27T12:45:52.749Z,11.50
2019-04-27T12:48:24.692Z,19.77
2019-04-27T12:50:57.223Z,14.63
2019-04-27T12:53:30.777Z,12.58
2019-04-27T12:56:06.546Z,15.35
2019-04-27T12:58:39.773Z,13.68
2019-04-27T13:01:15.450Z,15.95
2019-04-27T13:03:47.889Z,17.00
2019-04-27T13:06:20.682Z,11.68
2019-04-27T13:08:52.660Z,13.72
2019-04-27T13:11:26.535Z,13.05
2019-04-27T13:13:59.298Z,11.08
2019-04-27T13:16:32.535Z,15.68
2019-04-27T13:19:23.870Z,15.20
2019-04-27T13:21:56.882Z,11.15
2019-04-27T13:24:29.051Z,13.45
2019-04-27T13:27:01.452Z,15.32
2019-04-27T13:29:35.755Z,14.73
2019-04-27T13:32:07.915Z,14.40
2019-04-27T13:34:40.423Z,17.37
2019-04-27T13:37:13.713Z,14.38
2019-04-27T13:39:46.343Z,13.55
2019-04-27T13:42:18.547Z,11.75
2019-04-27T13:44:51.963Z,11.95
2019-04-27T13:47:25.139Z,13.28
2019-04-27T13:49:59.367Z,14.55
2019-04-27T13:52:31.601Z,13.70
2019-04-27T13:55:05.711Z,16.62
2019-04-27T13:57:49.770Z,12.60
2019-04-27T14:00:13.198Z,12.20
2019-04-27T14:02:45.301Z,14.53
2019-04-27T14:05:17.794Z,14.03
2019-04-27T14:08:00.276Z,16.30
2019-04-27T14:10:32.373Z,14.28
2019-04-27T14:13:04.383Z,17.32
2019-04-27T14:15:38.866Z,16.52
2019-04-27T14:18:10.841Z,16.32
2019-04-27T14:20:45.333Z,15.60
2019-04-27T14:23:18.890Z,16.40
2019-04-27T14:25:51.628Z,15.83
2019-04-27T14:28:23.844Z,11.28
2019-04-27T14:31:08.961Z,14.13
2019-04-27T14:33:43.957Z,14.28
2019-04-27T14:36:18.255Z,20.15
2019-04-27T14:39:11.078Z,17.52
2019-04-27T14:41:50.527Z,15.23
2019-04-27T14:44:23.385Z,17.42
2019-04-27T14:46:56.050Z,12.70
2019-04-27T14:49:29.028Z,15.68
2019-04-27T14:52:01.482Z,15.98
2019-04-27T14:54:47.273Z,15.43
2019-04-27T14:57:10.309Z,20.05
2019-04-27T14:59:42.463Z,16.37
2019-04-27T15:02:14.853Z,16.12
2019-04-27T15:04:47.271Z,14.83
2019-04-27T15:07:19.809Z,13.15
2019-04-27T15:09:54.436Z,17.25
2019-04-27T15:12:30.788Z,13.65
2019-04-27T15:15:22.633Z,17.17
2019-04-27T15:18:04.324Z,12.25
2019-04-27T15:20:51.738Z,12.82
2019-04-27T15:23:26.664Z,16.12
2019-04-27T15:26:00.398Z,16.25
2019-04-27T15:28:34.122Z,11.60
2019-04-27T15:31:07.055Z,12.15
2019-04-27T15:33:40.207Z,12.55
2019-04-27T15:36:18.439Z,14.83
2019-04-27T15:38:51.365Z,14.07
2019-04-27T15:41:28.778Z,14.47
2019-04-27T15:44:05.626Z,14.07
2019-04-27T15:46:34.797Z,11.10
2019-04-27T15:49:09.797Z,12.07
2019-04-27T15:51:43.939Z,11.18
2019-04-27T15:54:15.758Z,13.62
2019-04-27T15:56:47.764Z,11.03
2019-04-27T15:59:21.800Z,13.08
2019-04-27T16:02:15.611Z,14.53
2019-04-27T16:04:49.933Z,15.50
2019-04-27T16:07:25.308Z,14.10
2019-04-27T16:09:59.201Z,16.37
2019-04-27T16:12:30.081Z,10.03
2019-04-27T16:15:05.068Z,12.05
2019-04-27T16:17:36.075Z,14.00
2019-04-27T16:20:09.943Z,12.55
2019-04-27T16:22:42.080Z,20.97
2019-04-27T16:25:14.404Z,18.15
2019-04-27T16:27:48.976Z,13.65
2019-04-27T16:30:21.465Z,17.37
2019-04-27T16:32:54.094Z,14.93
2019-04-27T16:35:28.176Z,18.80
2019-04-27T16:38:02.272Z,16.20
2019-04-27T16:40:34.458Z,16.05
2019-04-27T16:43:08.845Z,13.45
2019-04-27T16:45:41.465Z,12.98
2019-04-27T16:48:13.722Z,25.37
2019-04-27T16:50:45.793Z,14.40
2019-04-27T16:53:18.674Z,15.30
2019-04-27T16:56:00.956Z,15.63
2019-04-27T16:58:25.474Z,14.90
2019-04-27T17:01:00.179Z,15.63
2019-04-27T17:03:35.757Z,15.05
2019-04-27T17:06:07.931Z,14.10
2019-04-27T17:08:41.936Z,13.48
2019-04-27T17:11:14.093Z,13.88
2019-04-27T17:13:49.680Z,18.67
2019-04-27T17:16:24.658Z,16.37
2019-04-27T17:19:04.672Z,16.55
2019-04-27T17:21:33.355Z,16.65
2019-04-27T17:24:06.194Z,18.40
2019-04-27T17:26:40.221Z,14.33
2019-04-27T17:29:16.508Z,18.62
2019-04-27T17:31:50.482Z,17.30
2019-04-27T17:34:25.223Z,18.42
2019-04-27T17:36:59.129Z,17.42
2019-04-27T17:39:31.653Z,15.78
2019-04-27T17:42:03.722Z,16.15
2019-04-27T17:44:36.161Z,17.25
2019-04-27T17:47:08.846Z,18.73
2019-04-27T17:49:42.381Z,15.48
2019-04-27T17:52:17.281Z,19.30
2019-04-27T17:54:48.544Z,16.05
2019-04-27T17:57:22.352Z,15.98
2019-04-27T17:59:59.065Z,17.73
2019-04-27T18:02:29.362Z,16.57
2019-04-27T18:05:02.328Z,17.82
2019-04-27T18:07:34.989Z,17.40
2019-04-27T18:10:13.400Z,19.02
2019-04-27T18:12:44.418Z,19.02
2019-04-27T18:15:17.289Z,18.92
2019-04-27T18:17:52.212Z,20.48
2019-04-27T18:20:26.199Z,18.27
2019-04-27T18:22:59.994Z,24.32
2019-04-27T18:25:35.647Z,24.95
2019-04-27T18:28:14.853Z,24.70
2019-04-27T18:30:45.211Z,21.17
2019-04-27T18:33:18.473Z,18.65
2019-04-27T18:35:51.221Z,19.07
2019-04-27T18:38:23.673Z,19.37
2019-04-27T18:40:55.667Z,19.87
2019-04-27T18:43:28.626Z,19.25
2019-04-27T18:46:01.231Z,20.75
2019-04-27T18:48:34.540Z,21.27
2019-04-27T18:51:08.173Z,17.23
2019-04-27T18:53:50.016Z,21.82
2019-04-27T18:56:22.423Z,17.77
2019-04-27T18:58:54.509Z,19.57
2019-04-27T19:01:28.840Z,17.00
2019-04-27T19:04:00.338Z,15.80
2019-04-27T19:06:32.833Z,20.92
2019-04-27T19:09:05.496Z,18.32
2019-04-27T19:11:38.412Z,19.05
2019-04-27T19:14:10.451Z,15.95
2019-04-27T19:16:42.659Z,18.32
2019-04-27T19:19:14.607Z,16.97
2019-04-27T19:21:48.591Z,17.85
2019-04-27T19:24:20.643Z,22.35
2019-04-27T19:26:54.128Z,18.02
2019-04-27T19:29:29.202Z,19.65
2019-04-27T19:32:02.646Z,14.95
2019-04-27T19:34:35.067Z,15.40
2019-04-27T19:37:08.327Z,13.90
2019-04-27T19:39:41.686Z,16.90
2019-04-27T19:42:14.690Z,15.98
2019-04-27T19:44:48.128Z,17.67
2019-04-27T19:47:20.250Z,17.95
2019-04-27T19:50:00.586Z,15.03
2019-04-27T19:52:32.806Z,14.85
2019-04-27T19:55:05.856Z,13.60
2019-04-27T19:57:41.662Z,19.23
2019-04-27T20:00:14.049Z,17.95
2019-04-27T20:02:47.901Z,12.35
2019-04-27T20:05:20.741Z,15.65
2019-04-27T20:07:53.175Z,12.53
2019-04-27T20:10:26.102Z,14.80
2019-04-27T20:12:58.223Z,15.13
2019-04-27T20:15:30.449Z,17.32
2019-04-27T20:18:02.635Z,16.77
2019-04-27T20:20:34.962Z,14.47
2019-04-27T20:23:07.569Z,15.28
2019-04-27T20:25:41.239Z,17.48
2019-04-27T20:28:13.857Z,12.47
2019-04-27T20:30:46.064Z,14.65
2019-04-27T20:33:18.321Z,13.08
2019-04-27T20:35:51.068Z,12.15
2019-04-27T20:38:25.058Z,13.68
2019-04-27T20:40:57.667Z,13.15
2019-04-27T20:43:31.808Z,13.40
2019-04-27T20:46:04.161Z,16.93
2019-04-27T20:48:36.988Z,15.28
2019-04-27T20:51:09.152Z,18.82
2019-04-27T20:53:43.155Z,16.60
2019-04-27T20:56:15.156Z,12.53
2019-04-27T20:58:47.439Z,15.98
2019-04-27T21:01:19.470Z,16.70
2019-04-27T21:03:52.978Z,14.25
2019-04-27T21:06:26.719Z,14.43
2019-04-27T21:09:00.843Z,15.58
2019-04-27T21:11:34.735Z,14.83
2019-04-27T21:14:07.329Z,15.65
2019-04-27T21:16:41.216Z,19.05
2019-04-27T21:19:13.185Z,15.25
2019-04-27T21:21:45.430Z,15.90
2019-04-27T21:24:17.566Z,17.40
2019-04-27T21:26:51.218Z,18.00
2019-04-27T21:29:26.377Z,16.67
2019-04-27T21:31:58.528Z,14.13
2019-04-27T21:34:31.217Z,15.70
2019-04-27T21:37:03.173Z,17.73
2019-04-27T21:39:38.440Z,19.35
2019-04-27T21:42:11.114Z,18.37
2019-04-27T21:44:43.476Z,18.60
2019-04-27T21:47:15.576Z,19.42
2019-04-27T21:49:47.838Z,17.98
2019-04-27T21:52:21.547Z,15.58
2019-04-27T21:54:54.911Z,14.20
2019-04-27T21:57:31.224Z,16.67
2019-04-27T22:00:12.462Z,17.92
2019-04-27T22:02:44.973Z,14.55
2019-04-27T22:05:17.353Z,14.80
2019-04-27T22:07:50.125Z,18.75
2019-04-27T22:10:22.209Z,16.45
2019-04-27T22:12:54.560Z,16.48
2019-04-27T22:15:27.041Z,23.70
2019-04-27T22:18:00.700Z,19.67
2019-04-27T22:20:34.778Z,19.98
2019-04-27T22:23:08.771Z,15.30
2019-04-27T22:25:42.221Z,20.27
2019-04-27T22:28:14.537Z,17.25
2019-04-27T22:30:46.622Z,18.85
2019-04-27T22:33:18.953Z,18.07
2019-04-27T22:35:51.787Z,16.73
2019-04-27T22:38:23.923Z,22.45
2019-04-27T22:40:59.075Z,19.55
2019-04-27T22:43:33.983Z,18.00
2019-04-27T22:46:08.462Z,18.40
2019-04-27T22:48:41.569Z,16.62
2019-04-27T22:51:14.021Z,19.52
2019-04-27T22:53:46.357Z,23.10
2019-04-27T22:56:22.243Z,19.30
2019-04-27T22:59:00.420Z,23.57
2019-04-27T23:01:30.816Z,20.37
2019-04-27T23:04:04.364Z,16.55
2019-04-27T23:06:36.847Z,18.65
2019-04-27T23:09:11.742Z,23.07
2019-04-27T23:11:44.292Z,18.05
2019-04-27T23:14:16.310Z,20.08
2019-04-27T23:16:50.850Z,19.52
2019-04-27T23:19:23.410Z,22.42
2019-04-27T23:21:55.501Z,21.95
2019-04-27T23:24:27.600Z,22.67
2019-04-27T23:27:03.396Z,19.25
2019-04-27T23:29:49.193Z,24.52
2019-04-27T23:32:23.793Z,26.27
2019-04-27T23:34:56.316Z,24.57
2019-04-27T23:37:28.904Z,27.45
2019-04-27T23:40:02.955Z,28.55
2019-04-27T23:42:35.794Z,23.15
2019-04-27T23:45:10.615Z,22.27
2019-04-27T23:48:02.251Z,22.07
2019-04-27T23:50:39.125Z,22.17
2019-04-27T23:53:13.235Z,31.68
2019-04-27T23:55:45.300Z,32.73
2019-04-27T23:58:17.443Z,23.27
